Create Custom Reports and Graphics: Custom Report

Latest Observations

Map

15 Minute Data

Latest Observation

39 Stations

15 Minute Data | America/Los_Angeles
as of 5/9/21 3:54 PM PDT
Station Date Time Temp (°F) RH (%) Dew Pt (°F) Wind Dir (°) Wind Spd (mph) Wind Gust (mph) Solar Rad (W/m2) Latest Rain (In) Daily Rain (In) Daily Max Temp (°F) Daily Min Temp (°F) Daily Max Wind (mph) Daily ETo (in) Daily Leaf Wet Hrs (hrs)
Colony 1 5/9/21 1545 86.9   1.2 16   4 35.7   8.2 NW | 309 5.8   7.3 12.8   10.0 825   8 0.00 0.00 87.3   0.9 49.4   0.1 15.9   10.8 0.179   0.040 -
Colony 2 5/9/21 1545 88.1   0.9 17   5 37.6   8.5 NW | 319 5.7   4.7 11.1   7.0 767   12 0.00 0.00 88.8   1.3 51.6   0.4 16.4   7.6 0.175   0.032 -
5 Wells 5/9/21 1545 86.2   0.7 17   3 35.8   5.8 NW | 310 7.7   4.6 15.0   4.9 776   8 0.00 0.00 86.8   0.8 47.3   1.7 16.1   9.7 0.171   0.033 -
Simmerhorn 5/9/21 1545 85.7   0.4 16   4 34.9   7.6 - - - - - - 86.2   0.2 46.1   2.9 - - -
Galt-East 5/9/21 1545 85.3   0.0 18   5 37.7   7.4 WNW | 294 7.1   3.5 15.8   2.5 735   2 0.00 0.00 85.8   0.2 48.0   1.0 15.8   4.6 0.156   0.022 -
Borden Hills 5/9/21 1545 87.5   0.2 22   5 44.2   6.9 WNW | 284 7.2   4.3 11.8   7.4 762   7 0.00 0.00 89.0   1.3 49.7   1.6 20.6   0.3 0.165   0.022 -
Sierra Loma-L27 5/9/21 1545 86.4   0.2 20   5 41.1   7.0 SW | 222 7.6   5.8 14.3   6.8 - 0.00 0.00 87.3   0.5 49.1   0.0 16.6   6.7 - -
Lockeford 5/9/21 1545 85.4   0.4 16   4 34.8   6.8 NNW | 348 6.5   4.3 13.8   5.0 70   52 0.00 0.00 85.8   0.2 46.6   0.8 14.5   4.4 0.158   0.022 0.0   0.0
Lone Oak-L28 5/9/21 1545 84.6   0.2 22   5 41.8   6.0 NW | 326 6.9   3.8 11.7   5.9 - 0.00 0.00 85.5   0.1 43.4   2.4 15.6   2.9 - -
Kost Rd 5/9/21 1545 86.8   0.2 19   5 39.7   7.8 NW | 308 7.8   0.3 14.4   4.0 704   2 0.00 0.00 87.8   0.0 61.5   4.2 17.1   5.8 0.176   0.012 -
Thornton 5/9/21 1545 86.7   0.9 17   5 36.5   9.7 NW | 316 6.6   6.4 14.2   7.4 787   7 0.00 0.00 87.1   0.8 63.7   7.6 19.2   6.7 0.120   0.032 0.0   0.0
Lodi (LangeTwins) 5/9/21 1545 87.4   0.4 19   7 40.2   10.9 N | 0 8.4   4.2 14.8   5.7 754   4 0.00 0.00 88.8   1.1 62.4   3.6 16.5   8.0 0.189   0.021 0.0   0.0
Gilbeau Ranch 5/9/21 1545 86.4   0.3 14   4 31.2   7.7 NNW | 337 4.8   2.8 11.4   4.9 835   5 0.00 0.00 87.2   0.6 48.1   2.8 16.6   1.9 0.152   0.021 -
Galt West 5/9/21 1545 86.8   0.5 19   4 39.2   6.7 NNW | 337 6.4   4.7 10.7   7.7 734   4 0.00 0.00 87.7   0.7 62.6   7.3 16.7   7.2 0.190   0.021 -
Valley Oak 5/9/21 1545 87.2   0.7 15   5 33.7   10.1 NNW | 338 5.6   3.5 12.8   4.2 752   5 0.00 0.00 88.2   1.3 59.7   1.0 17.5   4.2 0.180   0.019 -
Guard Rd (Lodi WSW) 5/9/21 1545 86.5   0.1 19   6 39.6   8.9 N | 351 6.3   2.4 14.7   3.5 790   10 0.00 0.00 87.0   0.4 57.6   0.9 22.0   2.4 0.187   0.014 0.0   0.0
Linden 5/9/21 1545 86.0   0.9 21   5 41.4   8.4 NW | 319 5.2   1.5 12.0   1.7 - 0.00 0.00 86.3   1.1 45.1   1.1 12.8   5.8 - 8.3   1.0
DeVries Road-North 5/9/21 1545 85.7   0.1 21   6 41.9   7.7 WNW | 300 8.5   1.0 14.0   1.1 736   2 0.00 0.00 87.7   1.6 53.6   3.7 17.4   3.0 0.170   0.012 -
Acampo 5/9/21 1545 85.9   0.3 17   7 35.7   12.4 NW | 312 6.6   3.3 12.1   6.0 764   10 - 0.00 86.2   0.2 51.9   6.1 15.8   6.4 0.172   0.019 0.0   0.0
Acampo (Woodbridge) 5/9/21 1545 86.7   0.1 17   6 36.1   10.5 NW | 315 9.5   4.4 17.6   7.6 792   6 0.00 0.00 87.2   0.2 53.2   2.1 21.5   3.7 0.183   0.024 -
Lodi West 5/9/21 1545 87.2   0.9 15   4 34.3   8.4 NW | 325 4.2   3.4 13.4   7.5 781   3 0.00 0.00 87.9   1.1 60.4   4.1 17.1   6.6 0.169   0.008 14.8   0.0
Teresi-Alpine Rd (East Lodi) 5/9/21 1545 86.8   0.2 16   5 35.6   10.1 NW | 312 8.6   2.6 15.7   1.9 500   10 0.00 0.00 87.5   0.1 51.0   2.8 17.7   5.5 - -
Victor - N (Katusha) 5/9/21 1545 86.0   1.1 17   5 35.8   9.6 NNW | 336 5.3   3.3 11.8   7.0 - 0.00 0.00 87.0   1.3 49.0   3.4 - - -
Live Oak 5/9/21 1545 86.6   0.2 19   6 39.1   9.2 WNW | 302 5.7   1.1 11.4   3.9 754   10 0.00 0.00 87.3   0.2 51.3   2.8 17.8   1.4 0.167   0.011 -
Sheldon 5/9/21 1545 86.9   0.6 18   5 37.9   8.9 NNW | 347 6.6   5.3 13.5   5.7 773   6 0.00 0.00 87.4   0.7 50.0   1.2 19.2   5.4 0.178   0.033 0.0   0.0
Sloughhouse 5/9/21 1545 87.7   1.1 14   3 33.1   7.4 NNW | 334 5.7   4.8 11.5   7.7 709   2 0.00 0.00 88.4   0.8 42.3   1.2 16.8   8.4 0.162   0.027 -
Utter - Wilson 5/9/21 1545 88.5   2.1 17   1 38.0   3.8 NW | 323 8.7   5.1 16.0   7.0 758   5 0.00 0.00 89.8   2.7 64.2   4.0 23.7   10.3 0.216   0.020 -
Clarksburg 5/9/21 1545 87.2   1.4 11   2 26.0   5.1 N | 355 8.0   2.4 16.6   6.7 819   6 0.00 0.00 88.3   1.9 65.6   4.2 25.6   6.1 0.223   0.013 -
Clarksburg-3A2 5/9/21 1545 87.6   2.0 13   1 31.2   3.7 N | 0 12.8   6.8 18.7   9.1 729   2 0.00 0.00 88.0   2.0 64.1   6.2 26.1   9.0 0.236   0.013 -
Gorter - Wilson 5/9/21 1545 87.5   1.3 19   2 39.7   3.9 NNW | 336 7.5   5.9 16.4   6.2 781   2 0.00 0.00 89.2   2.3 63.9   5.0 25.7   2.5 0.180   0.011 -
Hood 5/9/21 1545 86.0   0.9 17   2 36.2   4.6 N | 358 6.2   2.8 11.4   7.1 735   3 0.00 0.00 86.6   0.7 64.8   4.7 18.3   8.0 0.184   0.006 -
Courtland-C3 5/9/21 1545 87.5   1.5 17   3 37.4   6.6 NW | 317 8.8   7.7 14.2   11.3 - 0.00 0.00 88.6   1.7 63.9   4.3 23.0   9.4 - -
Pacific Fruit 5/9/21 1545 88.5   1.5 18   3 39.6   5.8 N | 354 4.4   0.5 12.8   1.0 742   6 0.00 0.00 89.4   1.9 65.7   4.8 18.0   5.1 0.173   0.010 -
Ryer Island South 5/9/21 1500 86.8   2.0 18   4 38.1   7.2 NNW | 335 6.0   2.8 12.6   5.5 852   11 0.00 0.00 87.4   2.0 64.1   3.4 21.6   8.3 0.205   0.015 0.0   0.0
Farmington (Mobley100) 5/9/21 1545 84.8   0.8 23   5 43.2   7.3 NNW | 338 2.1   0.5 7.5   0.1 - - - 85.3   1.1 48.5   1.4 10.0   1.1 - -
Collegeville 5/9/21 1545 85.2   0.7 21   5 40.4   7.0 NNW | 332 4.9   1.4 11.3   0.0 742   3 0.00 0.00 85.8   0.6 51.4   3.9 15.7   1.2 0.159   0.008 -
Oakdale North (28 Mile Rd) 5/9/21 1545 83.5   0.7 25   8 44.3   10.9 WNW | 296 1.9   0.6 6.2   3.6 - - - 84.1   0.9 47.9   3.6 11.0   0.4 - -
Escalon 5/9/21 1545 86.4   2.0 21   6 42.3   9.7 NW | 317 3.7   2.3 9.3   3.2 - 0.00 0.00 86.9   2.1 57.6   5.2 15.3   2.2 - 0.0   0.0
Claussen 5/9/21 1545 85.5   0.5 24   5 44.3   6.2 NW | 323 8.7   0.6 16.4   1.5 813   5 0.00 0.00 86.9   1.1 59.1   0.4 20.1   5.4 0.190   0.011 -
Max     88.5 25 44.3 - 12.8 18.7 852 0.00 0.00 89.8 65.7 26.1 0.236 14.8
Avg     86.5 18 37.8 - 6.6 13.2 736 0.00 - - - - - -
Min     83.5 11 26.0 - 1.9 6.2 70 0.00 0.00 84.1 42.3 10.0 0.120 0.0

Latest Observations

Map

Hourly Data